createdAt,value
2022-11-02T00:04:44.921Z,1013.4
2022-11-02T00:09:45.029Z,1013.3
2022-11-02T00:14:44.923Z,1013.3
2022-11-02T00:19:44.919Z,1013.4
2022-11-02T00:24:44.805Z,1013.3
2022-11-02T00:29:44.840Z,1013.3
2022-11-02T00:34:44.822Z,1013.4
2022-11-02T00:39:44.723Z,1013.4
2022-11-02T00:44:44.776Z,1013.4
2022-11-02T00:49:44.705Z,1013.4
2022-11-02T00:54:44.743Z,1013.7
2022-11-02T00:59:45.070Z,1013.7
2022-11-02T01:04:44.990Z,1013.8
2022-11-02T01:09:44.692Z,1013.6
2022-11-02T01:14:44.833Z,1013.7
2022-11-02T01:19:44.681Z,1013.7
2022-11-02T01:24:44.799Z,1013.7
2022-11-02T01:29:44.631Z,1013.5
2022-11-02T01:34:44.943Z,1013.3
2022-11-02T01:39:44.713Z,1013.6
2022-11-02T01:44:44.746Z,1013.5
2022-11-02T01:49:46.466Z,1013.5
2022-11-02T01:54:44.837Z,1013.6
2022-11-02T01:59:44.565Z,1013.5
2022-11-02T02:04:44.703Z,1013.4
2022-11-02T02:09:48.669Z,1013.5
2022-11-02T02:14:45.196Z,1013.5
2022-11-02T02:19:44.579Z,1013.5
2022-11-02T02:24:48.531Z,1013.6
2022-11-02T02:29:44.516Z,1013.6
2022-11-02T02:34:44.814Z,1013.6
2022-11-02T02:39:44.840Z,1013.5
2022-11-02T02:44:44.827Z,1013.4
2022-11-02T02:49:47.903Z,1013.4
2022-11-02T02:54:44.444Z,1013.4
2022-11-02T02:59:44.856Z,1013.5
2022-11-02T03:04:45.049Z,1013.5
2022-11-02T03:09:44.763Z,1013.4
2022-11-02T03:14:50.633Z,1013.3
2022-11-02T03:19:44.764Z,1013.5
2022-11-02T03:24:44.537Z,1013.5
2022-11-02T03:29:44.465Z,1013.5
2022-11-02T03:34:44.816Z,1013.6
2022-11-02T03:39:44.537Z,1013.7
2022-11-02T03:44:46.865Z,1013.7
2022-11-02T03:49:44.601Z,1013.7
2022-11-02T03:54:44.555Z,1013.7
2022-11-02T03:59:44.686Z,1013.8
2022-11-02T04:04:44.462Z,1014.1
2022-11-02T04:09:44.508Z,1014.1
2022-11-02T04:14:44.451Z,1014.2
2022-11-02T04:19:48.665Z,1014.2
2022-11-02T04:24:44.578Z,1014.4
2022-11-02T04:29:44.510Z,1014.6
2022-11-02T04:34:44.573Z,1014.7
2022-11-02T04:39:44.503Z,1014.8
2022-11-02T04:44:44.820Z,1014.9
2022-11-02T04:49:44.723Z,1015.1
2022-11-02T04:54:44.736Z,1015.3
2022-11-02T04:59:44.409Z,1015.2
2022-11-02T05:04:44.442Z,1015.5
2022-11-02T05:09:44.535Z,1015.5
2022-11-02T05:14:44.527Z,1015.6
2022-11-02T05:19:44.673Z,1015.6
2022-11-02T05:24:44.498Z,1015.6
2022-11-02T05:29:44.333Z,1015.7
2022-11-02T05:34:44.553Z,1015.8
2022-11-02T05:39:47.715Z,1015.8
2022-11-02T05:44:44.850Z,1015.9
2022-11-02T05:49:44.604Z,1015.9
2022-11-02T05:54:44.542Z,1016.1
2022-11-02T05:59:46.792Z,1016.2
2022-11-02T06:04:44.520Z,1016.3
2022-11-02T06:09:44.650Z,1016.5
2022-11-02T06:14:44.486Z,1016.6
2022-11-02T06:19:44.446Z,1016.7
2022-11-02T06:24:44.549Z,1016.7
2022-11-02T06:29:44.275Z,1016.9
2022-11-02T06:34:44.574Z,1017
2022-11-02T06:39:44.485Z,1017.1
2022-11-02T06:56:22.133Z,1017.6
2022-11-02T06:56:29.390Z,1017.6
2022-11-02T06:56:36.160Z,1017.6
2022-11-02T06:59:44.638Z,1017.6
2022-11-02T07:04:44.484Z,1017.8
2022-11-02T07:09:44.257Z,1018
2022-11-02T07:14:44.532Z,1018.1
2022-11-02T07:19:44.336Z,1018.3
2022-11-02T07:24:44.542Z,1018.4
2022-11-02T07:29:44.470Z,1018.5
2022-11-02T07:34:44.490Z,1018.5
2022-11-02T07:39:44.507Z,1018.6
2022-11-02T07:44:44.518Z,1018.6
2022-11-02T07:49:44.790Z,1018.7
2022-11-02T07:54:44.783Z,1018.8
2022-11-02T07:59:44.251Z,1018.9
2022-11-02T08:04:45.229Z,1018.9
2022-11-02T08:09:44.476Z,1018.9
2022-11-02T08:14:44.259Z,1018.9
2022-11-02T08:19:44.503Z,1019
2022-11-02T08:24:44.308Z,1019.1
2022-11-02T08:29:44.534Z,1019.2
2022-11-02T08:34:44.376Z,1019.2
2022-11-02T08:39:44.256Z,1019.2
2022-11-02T08:44:44.142Z,1019.2
2022-11-02T08:49:44.245Z,1019.3
2022-11-02T08:54:44.411Z,1019.2
2022-11-02T08:59:44.146Z,1019.3
2022-11-02T09:04:44.201Z,1019.4
2022-11-02T09:09:44.403Z,1019.5
2022-11-02T09:14:44.193Z,1019.5
2022-11-02T09:19:44.215Z,1019.6
2022-11-02T09:24:44.475Z,1019.7
2022-11-02T09:29:44.420Z,1019.7
2022-11-02T09:34:44.350Z,1019.9
2022-11-02T09:39:44.172Z,1020
2022-11-02T09:44:44.266Z,1020
2022-11-02T09:49:44.188Z,1020
2022-11-02T09:54:44.289Z,1020
2022-11-02T09:59:44.130Z,1020
2022-11-02T10:04:44.103Z,1020.1
2022-11-02T10:09:44.135Z,1020.1
2022-11-02T10:14:49.106Z,1020.1
2022-11-02T10:19:44.144Z,1020.2
2022-11-02T10:24:44.374Z,1020.1
2022-11-02T10:29:47.549Z,1020.1
2022-11-02T10:34:45.571Z,1020.2
2022-11-02T10:39:44.105Z,1020.2
2022-11-02T10:44:44.032Z,1020.4
2022-11-02T10:49:44.138Z,1020.4
2022-11-02T10:54:44.071Z,1020.4
2022-11-02T10:59:44.233Z,1020.5
2022-11-02T11:04:44.170Z,1020.5
2022-11-02T11:09:46.641Z,1020.5
2022-11-02T11:19:44.209Z,1020.5
2022-11-02T11:24:44.225Z,1020.4
2022-11-02T11:29:44.286Z,1020.5
2022-11-02T11:34:44.390Z,1020.5
2022-11-02T11:39:45.328Z,1020.4
2022-11-02T11:44:44.041Z,1020.4
2022-11-02T11:50:09.054Z,1020.4
2022-11-02T11:54:44.190Z,1020.5
2022-11-02T11:59:45.390Z,1020.5
2022-11-02T12:04:44.072Z,1020.6
2022-11-02T12:09:44.005Z,1020.4
2022-11-02T12:14:44.156Z,1020.4
2022-11-02T12:19:53.070Z,1020.4
2022-11-02T12:24:44.118Z,1020.3
2022-11-02T12:29:52.867Z,1020.2
2022-11-02T12:34:46.572Z,1020.2
2022-11-02T12:39:43.962Z,1020.1
2022-11-02T12:44:44.076Z,1020.2
2022-11-02T12:49:44.031Z,1020.1
2022-11-02T12:54:44.078Z,1020.2
2022-11-02T12:59:45.466Z,1020.2
2022-11-02T13:04:43.982Z,1020
2022-11-02T13:09:48.928Z,1020
2022-11-02T13:14:46.194Z,1019.9
2022-11-02T13:19:44.005Z,1019.8
2022-11-02T13:24:44.163Z,1019.7
2022-11-02T13:29:44.194Z,1019.7
2022-11-02T13:34:44.132Z,1019.6
2022-11-02T13:39:44.122Z,1019.6
2022-11-02T13:44:43.883Z,1019.6
2022-11-02T13:49:44.126Z,1019.5
2022-11-02T13:54:45.523Z,1019.5
2022-11-02T13:59:44.071Z,1019.5
2022-11-02T14:04:43.902Z,1019.5
2022-11-02T14:09:44.132Z,1019.5
2022-11-02T14:14:44.228Z,1019.4
2022-11-02T14:19:43.862Z,1019.4
2022-11-02T14:24:43.877Z,1019.4
2022-11-02T14:29:43.881Z,1019.3
2022-11-02T14:34:48.009Z,1019.3
2022-11-02T14:39:44.094Z,1019.2
2022-11-02T14:44:43.841Z,1019.1
2022-11-02T14:49:47.903Z,1019.1
2022-11-02T14:54:43.778Z,1019.1
2022-11-02T14:59:45.113Z,1019.1
2022-11-02T15:04:43.931Z,1019.1
2022-11-02T15:09:43.834Z,1019
2022-11-02T15:14:43.952Z,1018.9
2022-11-02T15:19:44.036Z,1018.9
2022-11-02T15:24:44.286Z,1018.9
2022-11-02T15:29:43.962Z,1018.9
2022-11-02T15:34:43.953Z,1018.8
2022-11-02T15:39:46.995Z,1018.8
2022-11-02T15:44:43.850Z,1018.7
2022-11-02T15:49:59.754Z,1018.7
2022-11-02T15:54:46.227Z,1018.6
2022-11-02T15:59:43.928Z,1018.5
2022-11-02T16:04:44.537Z,1018.5
2022-11-02T16:09:43.864Z,1018.4
2022-11-02T16:14:43.802Z,1018.4
2022-11-02T16:19:43.886Z,1018.3
2022-11-02T16:24:43.825Z,1018.4
2022-11-02T16:29:43.647Z,1018.3
2022-11-02T16:34:43.755Z,1018.3
2022-11-02T16:39:43.970Z,1018.3
2022-11-02T16:49:43.998Z,1018.2
2022-11-02T16:54:43.774Z,1018.3
2022-11-02T16:59:43.847Z,1018.3
2022-11-02T17:04:45.555Z,1018.3
2022-11-02T17:09:43.914Z,1018.2
2022-11-02T17:14:43.888Z,1018.3
2022-11-02T17:19:43.771Z,1018.3
2022-11-02T17:24:43.988Z,1018.2
2022-11-02T17:29:43.808Z,1018.1
2022-11-02T17:34:43.574Z,1018.1
2022-11-02T17:39:43.722Z,1018.1
2022-11-02T17:44:43.600Z,1018.1
2022-11-02T17:49:43.738Z,1018
2022-11-02T17:54:43.919Z,1018
2022-11-02T17:59:43.583Z,1018
2022-11-02T18:09:43.655Z,1017.9
2022-11-02T18:14:43.677Z,1017.8
2022-11-02T18:19:43.626Z,1017.8
2022-11-02T18:24:43.823Z,1017.7
2022-11-02T18:29:43.580Z,1017.7
2022-11-02T18:34:43.737Z,1017.6
2022-11-02T18:39:43.584Z,1017.5
2022-11-02T18:44:43.548Z,1017.4
2022-11-02T18:49:43.913Z,1017.4
2022-11-02T18:54:43.723Z,1017.2
2022-11-02T18:59:43.602Z,1017.1
2022-11-02T19:04:43.784Z,1016.9
2022-11-02T19:09:43.757Z,1016.8
2022-11-02T19:14:43.683Z,1016.8
2022-11-02T19:19:43.701Z,1016.8
2022-11-02T19:24:43.700Z,1016.6
2022-11-02T19:29:43.551Z,1016.7
2022-11-02T19:34:43.589Z,1016.6
2022-11-02T19:39:43.768Z,1016.4
2022-11-02T19:44:43.570Z,1016.5
2022-11-02T19:49:43.747Z,1016.4
2022-11-02T19:54:43.707Z,1016.4
2022-11-02T19:59:43.588Z,1016.3
2022-11-02T20:04:43.470Z,1016.3
2022-11-02T20:09:43.395Z,1016.2
2022-11-02T20:14:43.403Z,1016.1
2022-11-02T20:19:43.458Z,1016.1
2022-11-02T20:24:43.541Z,1016.1
2022-11-02T20:29:43.381Z,1016.1
2022-11-02T20:34:43.560Z,1016
2022-11-02T20:39:43.463Z,1015.9
2022-11-02T20:44:43.684Z,1015.9
2022-11-02T20:49:50.583Z,1015.9
2022-11-02T20:54:43.445Z,1015.9
2022-11-02T20:59:43.438Z,1015.9
2022-11-02T21:04:43.697Z,1015.8
2022-11-02T21:09:43.557Z,1015.9
2022-11-02T21:14:43.438Z,1015.9
2022-11-02T21:19:43.523Z,1015.7
2022-11-02T21:24:43.566Z,1015.6
2022-11-02T21:29:43.450Z,1015.7
2022-11-02T21:34:43.380Z,1015.6
2022-11-02T21:39:43.435Z,1015.4
2022-11-02T21:44:43.263Z,1015.4
2022-11-02T21:49:43.495Z,1015.4
2022-11-02T21:54:43.523Z,1015.3
2022-11-02T21:59:43.372Z,1015.3
2022-11-02T22:04:43.597Z,1015.3
2022-11-02T22:09:43.552Z,1015.1
2022-11-02T22:14:43.367Z,1015.1
2022-11-02T22:19:43.412Z,1014.9
2022-11-02T22:24:44.952Z,1014.9
2022-11-02T22:29:43.543Z,1014.8
2022-11-02T22:34:43.643Z,1014.8
2022-11-02T22:39:43.563Z,1014.6
2022-11-02T22:44:43.334Z,1014.6
2022-11-02T22:49:43.671Z,1014.4
2022-11-02T22:54:43.346Z,1014.3
2022-11-02T22:59:43.424Z,1014.3
2022-11-02T23:04:43.501Z,1014.3
2022-11-02T23:09:43.253Z,1014.2
2022-11-02T23:14:43.448Z,1014.2
2022-11-02T23:19:43.540Z,1014.1
2022-11-02T23:24:44.266Z,1014
2022-11-02T23:29:43.201Z,1014
2022-11-02T23:34:43.579Z,1014
2022-11-02T23:39:43.466Z,1013.9
2022-11-02T23:44:43.339Z,1013.9
2022-11-02T23:49:43.440Z,1013.9
2022-11-02T23:54:43.187Z,1013.9
2022-11-02T23:59:43.475Z,1013.8
